createdAt,value
2019-03-09T00:00:54.999Z,39.30
2019-03-09T00:03:25.048Z,39.40
2019-03-09T00:05:54.949Z,39.40
2019-03-09T00:08:25.020Z,39.40
2019-03-09T00:10:55.167Z,39.50
2019-03-09T00:13:25.191Z,39.40
2019-03-09T00:15:55.321Z,39.40
2019-03-09T00:18:25.293Z,39.30
2019-03-09T00:20:55.322Z,39.30
2019-03-09T00:23:59.448Z,39.30
2019-03-09T00:26:37.332Z,38.90
2019-03-09T00:29:11.534Z,39.40
2019-03-09T00:31:49.245Z,39.50
2019-03-09T00:34:19.141Z,39.40
2019-03-09T00:36:49.078Z,39.50
2019-03-09T00:39:19.183Z,39.50
2019-03-09T00:41:49.338Z,39.50
2019-03-09T00:44:19.487Z,39.40
2019-03-09T00:46:49.587Z,39.40
2019-03-09T00:49:19.727Z,39.40
2019-03-09T00:51:49.799Z,39.40
2019-03-09T00:54:19.845Z,39.40
2019-03-09T00:56:49.991Z,39.30
2019-03-09T00:59:19.976Z,39.50
2019-03-09T01:01:50.175Z,39.40
2019-03-09T01:04:20.119Z,39.40
2019-03-09T01:06:50.152Z,39.30
2019-03-09T01:09:21.603Z,39.40
2019-03-09T01:11:51.594Z,39.30
2019-03-09T01:14:21.709Z,39.40
2019-03-09T01:16:51.978Z,39.40
2019-03-09T01:19:21.944Z,39.30
2019-03-09T01:21:51.991Z,39.30
2019-03-09T01:24:21.994Z,39.20
2019-03-09T01:26:51.987Z,39.20
2019-03-09T01:29:21.925Z,39.20
2019-03-09T01:31:51.921Z,39.30
2019-03-09T01:34:22.062Z,39.30
2019-03-09T01:36:52.049Z,39.10
2019-03-09T01:39:22.018Z,39.30
2019-03-09T01:41:52.103Z,39.20
2019-03-09T01:44:22.076Z,39.20
2019-03-09T01:46:52.171Z,39.50
2019-03-09T01:49:22.261Z,39.20
2019-03-09T01:51:52.202Z,39.10
2019-03-09T01:54:22.252Z,39.20
2019-03-09T01:56:52.385Z,39.10
2019-03-09T01:59:22.414Z,39.00
2019-03-09T02:01:52.515Z,39.00
2019-03-09T02:04:22.544Z,39.10
2019-03-09T02:06:52.470Z,39.00
2019-03-09T02:09:22.641Z,38.90
2019-03-09T02:11:52.657Z,38.70
2019-03-09T02:14:22.684Z,38.80
2019-03-09T02:16:52.689Z,38.80
2019-03-09T02:19:22.692Z,38.80
2019-03-09T02:21:52.756Z,38.80
2019-03-09T02:24:22.760Z,38.90
2019-03-09T02:26:52.691Z,38.90
2019-03-09T02:29:22.771Z,38.90
2019-03-09T02:31:52.977Z,38.80
2019-03-09T02:34:22.873Z,39.00
2019-03-09T02:36:52.808Z,38.90
2019-03-09T02:39:40.211Z,38.90
2019-03-09T02:42:10.146Z,38.80
2019-03-09T02:44:40.168Z,38.90
2019-03-09T02:47:10.319Z,39.50
2019-03-09T02:49:40.204Z,39.00
2019-03-09T02:52:10.139Z,38.90
2019-03-09T02:54:40.120Z,38.90
2019-03-09T02:57:10.262Z,38.90
2019-03-09T02:59:40.239Z,38.90
2019-03-09T03:02:32.908Z,38.80
2019-03-09T03:05:02.826Z,38.80
2019-03-09T03:07:32.911Z,38.90
2019-03-09T03:10:02.992Z,38.80
2019-03-09T03:12:33.128Z,38.80
2019-03-09T03:15:03.240Z,38.80
2019-03-09T03:17:33.300Z,38.70
2019-03-09T03:20:03.406Z,38.70
2019-03-09T03:22:33.310Z,38.70
2019-03-09T03:25:03.229Z,38.70
2019-03-09T03:27:33.262Z,38.60
2019-03-09T03:30:03.311Z,38.60
2019-03-09T03:32:35.919Z,38.60
2019-03-09T03:35:06.771Z,38.50
2019-03-09T03:37:36.745Z,38.50
2019-03-09T03:40:07.406Z,38.30
2019-03-09T03:42:37.506Z,38.30
2019-03-09T03:45:07.629Z,38.30
2019-03-09T03:47:37.732Z,38.30
2019-03-09T03:50:07.753Z,38.20
2019-03-09T03:52:37.881Z,38.20
2019-03-09T03:55:07.915Z,38.10
2019-03-09T03:57:38.199Z,38.80
2019-03-09T04:00:09.116Z,38.00
2019-03-09T04:02:39.187Z,38.00
2019-03-09T04:05:09.305Z,37.90
2019-03-09T04:07:40.437Z,37.90
2019-03-09T04:10:11.369Z,37.90
2019-03-09T04:12:41.877Z,37.80
2019-03-09T04:15:12.659Z,37.80
2019-03-09T04:17:42.628Z,37.70
2019-03-09T04:20:13.339Z,37.60
2019-03-09T04:22:43.304Z,37.60
2019-03-09T04:25:13.421Z,37.70
2019-03-09T04:27:43.402Z,37.60
2019-03-09T04:30:13.813Z,37.60
2019-03-09T04:32:43.823Z,37.60
2019-03-09T04:35:13.914Z,37.60
2019-03-09T04:37:43.888Z,37.60
2019-03-09T04:40:14.122Z,37.60
2019-03-09T04:42:44.228Z,37.60
2019-03-09T04:45:14.556Z,37.50
2019-03-09T04:47:44.583Z,37.40
2019-03-09T04:50:14.841Z,37.40
2019-03-09T04:52:44.721Z,37.30
2019-03-09T04:55:14.999Z,37.40
2019-03-09T04:57:45.010Z,37.30
2019-03-09T05:00:15.912Z,37.40
2019-03-09T05:02:45.902Z,37.40
2019-03-09T05:05:16.029Z,37.40
2019-03-09T05:08:18.156Z,37.30
2019-03-09T05:11:04.121Z,37.30
2019-03-09T05:13:43.495Z,37.30
2019-03-09T05:16:13.490Z,37.50
2019-03-09T05:18:43.327Z,37.40
2019-03-09T05:21:13.344Z,37.40
2019-03-09T05:23:43.335Z,37.40
2019-03-09T05:26:13.439Z,37.30
2019-03-09T05:28:43.511Z,37.30
2019-03-09T05:31:13.420Z,37.40
2019-03-09T05:33:43.391Z,37.30
2019-03-09T05:36:13.409Z,37.30
2019-03-09T05:38:43.499Z,37.30
2019-03-09T05:41:13.439Z,37.20
2019-03-09T05:43:43.587Z,37.10
2019-03-09T05:46:13.553Z,37.20
2019-03-09T05:48:43.420Z,37.10
2019-03-09T05:51:13.457Z,37.20
2019-03-09T05:53:43.431Z,37.20
2019-03-09T05:56:13.385Z,37.20
2019-03-09T05:58:43.558Z,37.20
2019-03-09T06:01:13.616Z,37.20
2019-03-09T06:03:43.550Z,37.20
2019-03-09T06:06:15.643Z,37.20
2019-03-09T06:08:46.243Z,37.20
2019-03-09T06:11:16.171Z,37.20
2019-03-09T06:13:46.270Z,37.20
2019-03-09T06:16:16.346Z,37.20
2019-03-09T06:18:46.271Z,37.10
2019-03-09T06:21:16.348Z,37.10
2019-03-09T06:23:46.283Z,37.10
2019-03-09T06:26:16.249Z,37.10
2019-03-09T06:28:46.310Z,37.10
2019-03-09T06:31:35.304Z,37.20
2019-03-09T06:34:05.410Z,35.80
2019-03-09T06:36:57.528Z,37.10
2019-03-09T06:39:48.485Z,37.10
2019-03-09T06:42:31.298Z,37.10
2019-03-09T06:45:01.366Z,37.20
2019-03-09T06:47:31.335Z,37.10
2019-03-09T06:50:01.288Z,37.10
2019-03-09T06:52:31.424Z,37.10
2019-03-09T06:55:01.296Z,37.10
2019-03-09T06:57:31.231Z,37.00
2019-03-09T07:00:01.189Z,37.00
2019-03-09T07:02:31.249Z,37.00
2019-03-09T07:05:01.191Z,36.80
2019-03-09T07:07:31.133Z,37.00
2019-03-09T07:10:01.098Z,36.90
2019-03-09T07:12:31.069Z,36.90
2019-03-09T07:15:24.100Z,36.90
2019-03-09T07:17:56.632Z,37.00
2019-03-09T07:20:26.645Z,37.00
2019-03-09T07:22:56.665Z,37.10
2019-03-09T07:25:26.581Z,37.10
2019-03-09T07:28:04.584Z,37.10
2019-03-09T07:30:34.722Z,37.00
2019-03-09T07:33:05.136Z,37.10
2019-03-09T07:35:35.246Z,37.20
2019-03-09T07:38:05.406Z,37.20
2019-03-09T07:40:35.623Z,37.30
2019-03-09T07:43:05.730Z,37.20
2019-03-09T07:45:35.921Z,37.20
2019-03-09T07:48:06.091Z,37.20
2019-03-09T07:50:36.114Z,37.30
2019-03-09T07:53:06.188Z,37.30
2019-03-09T07:55:36.189Z,37.20
2019-03-09T07:58:07.365Z,37.30
2019-03-09T08:00:37.453Z,37.40
2019-03-09T08:03:07.446Z,37.30
2019-03-09T08:05:37.589Z,37.40
2019-03-09T08:08:07.657Z,37.40
2019-03-09T08:10:38.803Z,37.60
2019-03-09T08:13:08.957Z,37.60
2019-03-09T08:15:38.847Z,37.70
2019-03-09T08:18:08.912Z,37.70
2019-03-09T08:20:39.022Z,37.70
2019-03-09T08:23:09.224Z,37.80
2019-03-09T08:25:39.268Z,37.90
2019-03-09T08:28:09.312Z,37.90
2019-03-09T08:30:39.749Z,37.90
2019-03-09T08:33:09.851Z,38.00
2019-03-09T08:35:39.821Z,38.00
2019-03-09T08:38:09.802Z,38.10
2019-03-09T08:40:39.844Z,38.20
2019-03-09T08:43:09.866Z,38.20
2019-03-09T08:45:39.867Z,38.20
2019-03-09T08:48:09.989Z,38.30
2019-03-09T08:50:40.040Z,38.30
2019-03-09T08:53:10.056Z,38.30
2019-03-09T08:55:39.972Z,38.40
2019-03-09T08:58:10.063Z,38.50
2019-03-09T09:00:40.217Z,38.40
2019-03-09T09:03:10.204Z,38.50
2019-03-09T09:05:40.319Z,38.60
2019-03-09T09:08:10.194Z,38.60
2019-03-09T09:10:40.342Z,38.60
2019-03-09T09:13:10.311Z,38.50
2019-03-09T09:15:40.204Z,38.60
2019-03-09T09:18:10.249Z,38.60
2019-03-09T09:20:40.235Z,38.60
2019-03-09T09:23:10.288Z,38.60
2019-03-09T09:25:40.231Z,38.60
2019-03-09T09:28:10.298Z,38.60
2019-03-09T09:30:40.332Z,38.60
2019-03-09T09:33:10.382Z,38.50
2019-03-09T09:35:40.424Z,38.50
2019-03-09T09:38:10.532Z,38.60
2019-03-09T09:40:40.661Z,38.60
2019-03-09T09:43:10.745Z,38.70
2019-03-09T09:45:40.978Z,38.70
2019-03-09T09:48:11.082Z,38.70
2019-03-09T09:50:40.997Z,38.80
2019-03-09T09:53:11.223Z,38.70
2019-03-09T09:55:41.301Z,38.60
2019-03-09T09:58:11.341Z,38.90
2019-03-09T10:00:41.359Z,38.90
2019-03-09T10:03:11.329Z,38.90
2019-03-09T10:05:41.476Z,38.90
2019-03-09T10:08:11.383Z,39.00
2019-03-09T10:10:41.389Z,39.00
2019-03-09T10:13:11.371Z,39.00
2019-03-09T10:15:41.401Z,39.10
2019-03-09T10:18:11.533Z,39.20
2019-03-09T10:20:41.560Z,39.30
2019-03-09T10:23:11.631Z,39.30
2019-03-09T10:25:41.686Z,39.40
2019-03-09T10:28:11.652Z,39.50
2019-03-09T10:30:41.817Z,39.40
2019-03-09T10:33:11.742Z,39.50
2019-03-09T10:35:41.753Z,39.60
2019-03-09T10:38:11.769Z,40.20
2019-03-09T10:40:41.822Z,39.50
2019-03-09T10:43:11.790Z,39.50
2019-03-09T10:45:41.767Z,39.60
2019-03-09T10:48:11.807Z,39.50
2019-03-09T10:50:41.833Z,39.50
2019-03-09T10:53:11.841Z,39.60
2019-03-09T10:55:42.596Z,39.70
2019-03-09T10:58:12.902Z,39.60
2019-03-09T11:00:42.942Z,39.70
2019-03-09T11:03:13.038Z,39.60
2019-03-09T11:05:43.109Z,40.30
2019-03-09T11:08:13.314Z,39.70
2019-03-09T11:10:43.326Z,39.70
2019-03-09T11:13:13.244Z,39.70
2019-03-09T11:15:43.153Z,39.70
2019-03-09T11:18:13.214Z,39.70
2019-03-09T11:20:43.230Z,39.70
2019-03-09T11:23:13.325Z,39.80
2019-03-09T11:25:43.317Z,39.70
2019-03-09T11:28:14.462Z,39.70
2019-03-09T11:30:44.535Z,39.70
2019-03-09T11:33:14.553Z,39.70
2019-03-09T11:35:44.663Z,39.70
2019-03-09T11:38:14.632Z,39.70
2019-03-09T11:40:44.729Z,39.70
2019-03-09T11:43:14.664Z,39.80
2019-03-09T11:45:44.699Z,39.90
2019-03-09T11:48:14.718Z,40.00
2019-03-09T11:50:44.662Z,40.10
2019-03-09T11:53:15.605Z,40.00
2019-03-09T11:55:45.774Z,39.90
2019-03-09T11:58:15.690Z,39.90
2019-03-09T12:00:46.401Z,40.00
2019-03-09T12:03:16.473Z,40.00
2019-03-09T12:05:46.684Z,40.00
2019-03-09T12:08:16.681Z,39.90
2019-03-09T12:10:46.843Z,39.90
2019-03-09T12:13:16.987Z,40.60
2019-03-09T12:15:46.967Z,39.90
2019-03-09T12:18:16.950Z,39.90
2019-03-09T12:20:47.088Z,39.90
2019-03-09T12:23:22.275Z,39.80
2019-03-09T12:25:52.574Z,39.90
2019-03-09T12:28:22.492Z,39.90
2019-03-09T12:30:52.948Z,40.00
2019-03-09T12:33:23.006Z,40.10
2019-03-09T12:35:53.156Z,40.00
2019-03-09T12:38:23.146Z,40.10
2019-03-09T12:40:53.224Z,40.10
2019-03-09T12:43:23.331Z,40.00
2019-03-09T12:45:53.364Z,39.90
2019-03-09T12:48:23.351Z,40.00
2019-03-09T12:50:53.407Z,40.00
2019-03-09T12:53:23.515Z,40.10
2019-03-09T12:55:53.620Z,40.10
2019-03-09T12:58:23.626Z,40.20
2019-03-09T13:00:53.956Z,40.20
2019-03-09T13:03:23.987Z,40.10
2019-03-09T13:05:54.031Z,40.10
2019-03-09T13:08:24.021Z,40.20
2019-03-09T13:10:55.855Z,40.20
2019-03-09T13:13:25.786Z,40.20
2019-03-09T13:15:55.947Z,40.10
2019-03-09T13:18:26.086Z,40.10
2019-03-09T13:20:56.101Z,40.70
2019-03-09T13:23:26.317Z,40.00
2019-03-09T13:25:56.433Z,40.00
2019-03-09T13:28:26.357Z,40.00
2019-03-09T13:30:56.323Z,40.10
2019-03-09T13:33:26.401Z,40.00
2019-03-09T13:35:57.474Z,40.10
2019-03-09T13:38:27.722Z,40.10
2019-03-09T13:40:57.647Z,40.10
2019-03-09T13:43:27.738Z,40.10
2019-03-09T13:45:57.746Z,40.10
2019-03-09T13:48:27.710Z,40.10
2019-03-09T13:50:57.664Z,40.20
2019-03-09T13:53:27.651Z,40.10
2019-03-09T13:55:57.732Z,40.20
2019-03-09T13:58:27.788Z,40.20
2019-03-09T14:00:57.706Z,40.20
2019-03-09T14:03:27.747Z,40.20
2019-03-09T14:05:57.731Z,40.20
2019-03-09T14:08:27.665Z,40.30
2019-03-09T14:10:57.684Z,40.30
2019-03-09T14:13:27.718Z,40.30
2019-03-09T14:15:57.654Z,40.30
2019-03-09T14:18:27.709Z,40.20
2019-03-09T14:20:57.797Z,40.20
2019-03-09T14:23:27.788Z,40.30
2019-03-09T14:25:57.770Z,40.20
2019-03-09T14:28:27.785Z,40.30
2019-03-09T14:30:57.936Z,40.30
2019-03-09T14:33:28.913Z,40.30
2019-03-09T14:35:59.227Z,40.40
2019-03-09T14:38:29.246Z,41.00
2019-03-09T14:40:59.308Z,40.40
2019-03-09T14:43:29.307Z,40.40
2019-03-09T14:45:59.187Z,40.40
2019-03-09T14:48:29.210Z,40.50
2019-03-09T14:50:59.163Z,41.10
2019-03-09T14:53:29.258Z,40.50
2019-03-09T14:55:59.232Z,40.50
2019-03-09T14:58:29.187Z,40.60
2019-03-09T15:00:59.082Z,40.60
2019-03-09T15:03:29.105Z,40.60
2019-03-09T15:05:59.128Z,40.70
2019-03-09T15:08:29.041Z,40.70
2019-03-09T15:10:59.212Z,40.70
2019-03-09T15:13:29.351Z,40.60
2019-03-09T15:15:59.279Z,40.80
2019-03-09T15:18:29.358Z,40.70
2019-03-09T15:20:59.372Z,40.80
2019-03-09T15:23:29.297Z,40.80
2019-03-09T15:25:59.412Z,40.90
2019-03-09T15:28:29.491Z,40.90
2019-03-09T15:30:59.423Z,40.90
2019-03-09T15:33:29.321Z,40.80
2019-03-09T15:35:59.298Z,40.80
2019-03-09T15:38:29.279Z,40.80
2019-03-09T15:40:59.310Z,40.80
2019-03-09T15:43:29.314Z,40.90
2019-03-09T15:45:59.325Z,40.90
2019-03-09T15:48:29.299Z,41.10
2019-03-09T15:50:59.360Z,41.30
2019-03-09T15:53:29.272Z,40.90
2019-03-09T15:55:59.324Z,40.90
2019-03-09T15:58:29.341Z,40.90
2019-03-09T16:00:59.246Z,40.80
2019-03-09T16:03:29.266Z,40.90
2019-03-09T16:05:59.403Z,40.90
2019-03-09T16:08:29.538Z,40.90
2019-03-09T16:10:59.437Z,40.90
2019-03-09T16:13:29.513Z,40.90
2019-03-09T16:15:59.394Z,40.90
2019-03-09T16:18:29.483Z,40.90
2019-03-09T16:20:59.481Z,40.90
2019-03-09T16:23:29.393Z,40.90
2019-03-09T16:25:59.495Z,40.90
2019-03-09T16:28:29.708Z,40.90
2019-03-09T16:30:59.628Z,41.00
2019-03-09T16:33:29.521Z,41.00
2019-03-09T16:35:59.548Z,41.10
2019-03-09T16:38:29.692Z,40.90
2019-03-09T16:40:59.780Z,41.20
2019-03-09T16:43:29.783Z,40.90
2019-03-09T16:45:59.843Z,41.00
2019-03-09T16:48:29.894Z,41.00
2019-03-09T16:50:59.972Z,41.10
2019-03-09T16:53:29.917Z,41.10
2019-03-09T16:55:59.976Z,41.10
2019-03-09T16:58:29.934Z,41.10
2019-03-09T17:00:59.865Z,41.10
2019-03-09T17:03:29.968Z,41.20
2019-03-09T17:05:59.886Z,41.20
2019-03-09T17:08:29.833Z,41.20
2019-03-09T17:10:59.921Z,41.20
2019-03-09T17:13:29.939Z,41.20
2019-03-09T17:15:59.961Z,41.20
2019-03-09T17:18:30.030Z,41.30
2019-03-09T17:21:00.112Z,41.20
2019-03-09T17:23:30.122Z,41.30
2019-03-09T17:26:00.084Z,41.30
2019-03-09T17:28:29.990Z,41.30
2019-03-09T17:30:59.990Z,41.20
2019-03-09T17:33:29.910Z,41.20
2019-03-09T17:35:59.850Z,41.20
2019-03-09T17:38:29.996Z,41.20
2019-03-09T17:40:59.923Z,41.10
2019-03-09T17:43:29.838Z,41.10
2019-03-09T17:45:59.821Z,41.00
2019-03-09T17:48:29.754Z,41.00
2019-03-09T17:50:59.664Z,40.90
2019-03-09T17:53:29.663Z,40.90
2019-03-09T17:55:59.591Z,41.00
2019-03-09T17:58:29.596Z,41.00
2019-03-09T18:00:59.580Z,40.90
2019-03-09T18:03:29.626Z,41.00
2019-03-09T18:05:59.664Z,40.90
2019-03-09T18:08:29.601Z,40.90
2019-03-09T18:11:02.395Z,40.80
2019-03-09T18:13:32.483Z,40.80
2019-03-09T18:16:02.541Z,40.90
2019-03-09T18:18:32.509Z,40.80
2019-03-09T18:21:02.675Z,40.80
2019-03-09T18:23:32.569Z,40.70
2019-03-09T18:26:02.622Z,40.70
2019-03-09T18:28:32.582Z,40.80
2019-03-09T18:31:02.528Z,40.70
2019-03-09T18:33:32.602Z,40.70
2019-03-09T18:36:02.935Z,40.70
2019-03-09T18:38:32.982Z,40.70
2019-03-09T18:41:02.895Z,40.60
2019-03-09T18:43:33.119Z,40.70
2019-03-09T18:46:03.093Z,40.70
2019-03-09T18:48:33.015Z,40.70
2019-03-09T18:51:03.056Z,40.60
2019-03-09T18:53:33.135Z,40.60
2019-03-09T18:56:03.179Z,40.60
2019-03-09T18:58:33.098Z,40.50
2019-03-09T19:01:03.064Z,40.40
2019-03-09T19:03:33.082Z,40.50
2019-03-09T19:06:02.998Z,40.40
2019-03-09T19:08:33.034Z,40.40
2019-03-09T19:11:03.244Z,40.30
2019-03-09T19:13:33.198Z,40.30
2019-03-09T19:16:03.135Z,40.30
2019-03-09T19:18:33.165Z,40.30
2019-03-09T19:21:03.073Z,40.20
2019-03-09T19:23:33.058Z,40.20
2019-03-09T19:26:03.454Z,40.20
2019-03-09T19:28:33.665Z,40.10
2019-03-09T19:31:03.944Z,40.00
2019-03-09T19:33:33.910Z,40.10
2019-03-09T19:36:04.150Z,40.10
2019-03-09T19:38:34.271Z,40.00
2019-03-09T19:41:06.108Z,40.00
2019-03-09T19:43:37.856Z,39.90
2019-03-09T19:46:08.874Z,39.90
2019-03-09T19:48:40.807Z,39.80
2019-03-09T19:51:12.214Z,39.80
2019-03-09T19:53:42.542Z,39.90
2019-03-09T19:56:13.187Z,39.80
2019-03-09T19:58:45.464Z,39.70
2019-03-09T20:01:18.478Z,39.70
2019-03-09T20:03:50.818Z,39.70
2019-03-09T20:06:23.030Z,39.70
2019-03-09T20:08:54.911Z,40.30
2019-03-09T20:11:27.150Z,39.70
2019-03-09T20:13:59.325Z,39.60
2019-03-09T20:16:31.541Z,39.70
2019-03-09T20:19:03.690Z,39.60
2019-03-09T20:21:37.014Z,39.70
2019-03-09T20:24:08.844Z,39.70
2019-03-09T20:26:40.519Z,39.80
2019-03-09T20:29:11.399Z,39.70
2019-03-09T20:31:42.124Z,39.80
2019-03-09T20:34:13.164Z,39.70
2019-03-09T20:36:45.239Z,39.70
2019-03-09T20:39:17.417Z,39.70
2019-03-09T20:41:49.614Z,39.70
2019-03-09T20:44:21.255Z,39.70
2019-03-09T20:46:52.268Z,39.80
2019-03-09T20:49:23.236Z,39.70
2019-03-09T20:51:54.246Z,39.70
2019-03-09T20:54:26.356Z,39.70
2019-03-09T20:56:58.486Z,39.70
2019-03-09T20:59:30.397Z,39.60
2019-03-09T21:02:01.881Z,39.50
2019-03-09T21:04:32.893Z,39.60
2019-03-09T21:07:04.745Z,39.50
2019-03-09T21:09:36.198Z,39.50
2019-03-09T21:12:07.749Z,39.60
2019-03-09T21:14:39.669Z,39.60
2019-03-09T21:17:11.784Z,39.50
2019-03-09T21:19:43.330Z,39.50
2019-03-09T21:22:16.203Z,39.40
2019-03-09T21:24:47.466Z,39.40
2019-03-09T21:27:18.207Z,39.30
2019-03-09T21:29:48.716Z,39.30
2019-03-09T21:32:20.284Z,39.30
2019-03-09T21:34:51.039Z,39.30
2019-03-09T21:37:22.118Z,39.30
2019-03-09T21:39:52.754Z,39.30
2019-03-09T21:42:23.190Z,39.30
2019-03-09T21:44:53.501Z,39.20
2019-03-09T21:47:23.772Z,39.30
2019-03-09T21:49:53.915Z,39.30
2019-03-09T21:52:23.865Z,39.30
2019-03-09T21:54:53.901Z,39.30
2019-03-09T21:57:23.875Z,39.70
2019-03-09T21:59:54.021Z,39.20
2019-03-09T22:02:24.164Z,39.20
2019-03-09T22:04:54.178Z,39.10
2019-03-09T22:07:24.187Z,39.20
2019-03-09T22:09:54.128Z,39.20
2019-03-09T22:12:24.026Z,39.10
2019-03-09T22:14:54.132Z,39.10
2019-03-09T22:17:24.128Z,39.10
2019-03-09T22:19:54.130Z,39.10
2019-03-09T22:22:24.076Z,39.00
2019-03-09T22:24:53.985Z,39.00
2019-03-09T22:27:23.969Z,39.00
2019-03-09T22:29:53.944Z,39.00
2019-03-09T22:32:23.821Z,39.00
2019-03-09T22:34:53.904Z,39.10
2019-03-09T22:37:23.846Z,38.90
2019-03-09T22:39:53.902Z,39.00
2019-03-09T22:42:23.972Z,39.00
2019-03-09T22:44:53.962Z,38.90
2019-03-09T22:47:24.325Z,38.90
2019-03-09T22:49:54.345Z,39.00
2019-03-09T22:52:24.306Z,38.90
2019-03-09T22:54:54.398Z,38.90
2019-03-09T22:57:24.318Z,38.90
2019-03-09T22:59:54.258Z,38.90
2019-03-09T23:02:24.486Z,38.90
2019-03-09T23:04:54.561Z,38.90
2019-03-09T23:07:24.574Z,38.90
2019-03-09T23:09:54.632Z,38.90
2019-03-09T23:12:24.782Z,38.90
2019-03-09T23:14:54.845Z,38.90
2019-03-09T23:17:24.875Z,38.90
2019-03-09T23:19:54.786Z,38.80
2019-03-09T23:22:24.889Z,38.80
2019-03-09T23:24:54.802Z,38.80
2019-03-09T23:27:24.705Z,38.90
2019-03-09T23:29:54.807Z,38.90
2019-03-09T23:32:24.976Z,38.80
2019-03-09T23:34:54.895Z,38.90
2019-03-09T23:37:25.105Z,38.80
2019-03-09T23:39:55.100Z,38.80
2019-03-09T23:42:25.089Z,38.80
2019-03-09T23:44:56.240Z,38.80
2019-03-09T23:47:26.315Z,38.80
2019-03-09T23:49:56.443Z,38.70
2019-03-09T23:52:26.609Z,38.80
2019-03-09T23:54:56.686Z,38.70
2019-03-09T23:57:26.870Z,38.70
2019-03-09T23:59:56.983Z,38.80
